createdAt,value
2023-03-16T00:02:10.736Z,101243.81
2023-03-16T00:04:38.204Z,101243.31
2023-03-16T00:07:10.416Z,101243.75
2023-03-16T00:09:41.345Z,101243.75
2023-03-16T00:12:15.805Z,101240.72
2023-03-16T00:14:44.793Z,101242.88
2023-03-16T00:17:18.965Z,101238.78
2023-03-16T00:19:57.215Z,101246.34
2023-03-16T00:22:29.681Z,101247.34
2023-03-16T00:24:57.207Z,101246.56
2023-03-16T00:27:26.367Z,101252.25
2023-03-16T00:29:57.249Z,101250.25
2023-03-16T00:32:29.504Z,101248.16
2023-03-16T00:34:56.769Z,101254.81
2023-03-16T00:37:25.488Z,101254.63
2023-03-16T00:39:56.361Z,101251.84
2023-03-16T00:42:27.532Z,101246.91
2023-03-16T00:44:58.847Z,101241.16
2023-03-16T00:47:28.566Z,101240.94
2023-03-16T00:49:55.835Z,101240.06
2023-03-16T00:52:23.687Z,101238.53
2023-03-16T00:54:53.009Z,101234.50
2023-03-16T00:57:22.056Z,101238.16
2023-03-16T00:59:49.309Z,101237.28
2023-03-16T01:02:19.374Z,101233.19
2023-03-16T01:04:46.178Z,101234.00
2023-03-16T01:07:15.085Z,101227.06
2023-03-16T01:09:44.485Z,101234.38
2023-03-16T01:12:17.958Z,101226.44
2023-03-16T01:14:48.163Z,101214.00
2023-03-16T01:17:17.579Z,101205.72
2023-03-16T01:19:45.033Z,101205.16
2023-03-16T01:22:12.150Z,101206.34
2023-03-16T01:24:39.886Z,101215.31
2023-03-16T01:27:08.011Z,101210.28
2023-03-16T01:29:35.910Z,101216.19
2023-03-16T01:32:04.385Z,101219.13
2023-03-16T01:34:32.028Z,101223.06
2023-03-16T01:36:59.879Z,101214.19
2023-03-16T01:39:58.950Z,101213.44
2023-03-16T01:42:25.784Z,101217.75
2023-03-16T01:44:55.218Z,101221.25
2023-03-16T01:47:24.133Z,101212.56
2023-03-16T01:49:55.065Z,101209.50
2023-03-16T01:52:29.736Z,101213.81
2023-03-16T01:55:13.853Z,101204.84
2023-03-16T01:57:45.015Z,101204.44
2023-03-16T02:00:23.921Z,101193.84
2023-03-16T02:03:10.595Z,101189.16
2023-03-16T02:05:56.532Z,101194.53
2023-03-16T02:08:25.212Z,101195.50
2023-03-16T02:10:54.845Z,101198.97
2023-03-16T02:13:29.541Z,101194.75
2023-03-16T02:15:56.422Z,101182.56
2023-03-16T02:18:23.305Z,101182.75
2023-03-16T02:21:33.259Z,101174.94
2023-03-16T02:24:04.631Z,101173.44
2023-03-16T02:26:49.308Z,101170.34
2023-03-16T02:29:30.157Z,101169.09
2023-03-16T02:32:06.421Z,101168.66
2023-03-16T02:34:33.610Z,101157.63
2023-03-16T02:37:01.187Z,101164.78
2023-03-16T02:39:29.895Z,101156.38
2023-03-16T02:41:57.117Z,101156.38
2023-03-16T02:44:29.169Z,101160.84
2023-03-16T02:47:04.500Z,101171.44
2023-03-16T02:49:36.769Z,101161.22
2023-03-16T02:52:12.325Z,101158.34
2023-03-16T02:54:57.320Z,101157.44
2023-03-16T02:57:31.904Z,101154.53
2023-03-16T03:00:21.890Z,101153.78
2023-03-16T03:02:57.426Z,101149.00
2023-03-16T03:05:37.343Z,101133.16
2023-03-16T03:08:52.321Z,101130.34
2023-03-16T03:11:05.590Z,101140.47
2023-03-16T03:13:32.755Z,101136.81
2023-03-16T03:16:08.875Z,101126.66
2023-03-16T03:18:44.442Z,101133.22
2023-03-16T03:21:20.648Z,101131.25
2023-03-16T03:23:48.017Z,101129.69
2023-03-16T03:26:20.377Z,101130.50
2023-03-16T03:28:49.720Z,101124.56
2023-03-16T03:31:21.472Z,101122.72
2023-03-16T03:33:54.073Z,101115.97
2023-03-16T03:36:22.457Z,101123.13
2023-03-16T03:38:55.174Z,101125.38
2023-03-16T03:41:24.722Z,101118.25
2023-03-16T03:43:53.539Z,101119.25
2023-03-16T03:46:21.688Z,101121.47
2023-03-16T03:48:48.956Z,101113.72
2023-03-16T03:51:16.131Z,101116.56
2023-03-16T03:53:55.231Z,101111.81
2023-03-16T03:56:40.887Z,101104.16
2023-03-16T03:59:12.625Z,101110.69
2023-03-16T04:02:15.236Z,101109.78
2023-03-16T04:04:50.582Z,101110.81
2023-03-16T04:07:18.395Z,101112.19
2023-03-16T04:09:46.953Z,101109.16
2023-03-16T04:12:24.602Z,101113.06
2023-03-16T04:14:52.368Z,101112.06
2023-03-16T04:17:21.004Z,101113.50
2023-03-16T04:19:49.794Z,101116.38
2023-03-16T04:22:17.779Z,101125.41
2023-03-16T04:24:49.093Z,101120.03
2023-03-16T04:30:00.728Z,101126.41
2023-03-16T04:32:32.103Z,101140.69
2023-03-16T04:35:06.428Z,101133.81
2023-03-16T04:37:55.503Z,101131.59
2023-03-16T04:40:30.734Z,101119.16
2023-03-16T04:43:13.912Z,101120.19
2023-03-16T04:45:45.655Z,101121.97
2023-03-16T04:48:16.031Z,101120.28
2023-03-16T04:51:06.565Z,101120.97
2023-03-16T04:53:44.867Z,101114.19
2023-03-16T04:56:32.683Z,101114.38
2023-03-16T04:59:04.438Z,101115.22
2023-03-16T05:01:43.863Z,101117.66
2023-03-16T05:04:18.892Z,101121.69
2023-03-16T05:06:54.058Z,101119.59
2023-03-16T05:09:28.180Z,101111.84
2023-03-16T05:11:56.165Z,101112.25
2023-03-16T05:14:27.686Z,101101.41
2023-03-16T05:17:21.065Z,101104.59
2023-03-16T05:19:50.003Z,101095.41
2023-03-16T05:22:31.742Z,101094.53
2023-03-16T05:25:17.118Z,101095.69
2023-03-16T05:28:00.160Z,101101.16
2023-03-16T05:30:46.531Z,101101.59
2023-03-16T05:33:41.226Z,101101.34
2023-03-16T05:36:13.220Z,101094.84
2023-03-16T05:38:42.804Z,101090.63
2023-03-16T05:41:15.325Z,101092.41
2023-03-16T05:44:12.369Z,101093.66
2023-03-16T05:47:05.617Z,101096.44
2023-03-16T05:49:36.924Z,101089.19
2023-03-16T05:52:08.670Z,101088.09
2023-03-16T05:54:45.374Z,101077.50
2023-03-16T05:57:12.583Z,101073.84
2023-03-16T05:59:43.264Z,101075.09
2023-03-16T06:02:11.888Z,101075.16
2023-03-16T06:04:41.594Z,101066.69
2023-03-16T06:07:08.939Z,101063.41
2023-03-16T06:09:41.369Z,101073.25
2023-03-16T06:12:14.441Z,101070.47
2023-03-16T06:14:42.316Z,101059.72
2023-03-16T06:17:10.887Z,101064.66
2023-03-16T06:19:40.397Z,101065.34
2023-03-16T06:22:11.068Z,101059.34
2023-03-16T06:24:39.289Z,101061.09
2023-03-16T06:27:09.477Z,101062.41
2023-03-16T06:29:50.169Z,101062.13
2023-03-16T06:32:17.852Z,101067.50
2023-03-16T06:34:48.361Z,101065.56
2023-03-16T06:37:16.051Z,101066.84
2023-03-16T06:39:45.064Z,101076.31
2023-03-16T06:42:12.620Z,101080.00
2023-03-16T06:44:40.254Z,101080.06
2023-03-16T06:47:10.564Z,101081.72
2023-03-16T06:49:38.421Z,101074.41
2023-03-16T06:52:18.613Z,101078.75
2023-03-16T06:54:46.653Z,101085.66
2023-03-16T06:57:15.408Z,101084.66
2023-03-16T06:59:52.870Z,101082.44
2023-03-16T07:02:26.681Z,101081.81
2023-03-16T07:04:56.956Z,101084.28
2023-03-16T07:07:25.080Z,101080.56
2023-03-16T07:09:57.011Z,101080.16
2023-03-16T07:12:24.816Z,101080.59
2023-03-16T07:14:54.223Z,101089.34
2023-03-16T07:17:25.535Z,101083.44
2023-03-16T07:19:52.956Z,101085.09
2023-03-16T07:22:22.311Z,101085.69
2023-03-16T07:24:57.453Z,101084.25
2023-03-16T07:27:29.686Z,101085.09
2023-03-16T07:29:57.959Z,101089.38
2023-03-16T07:32:25.073Z,101083.47
2023-03-16T07:34:53.391Z,101079.56
2023-03-16T07:37:25.490Z,101092.44
2023-03-16T07:39:55.339Z,101097.53
2023-03-16T07:42:25.212Z,101092.00
2023-03-16T07:45:10.345Z,101094.09
2023-03-16T07:47:42.331Z,101095.72
2023-03-16T07:50:26.064Z,101094.88
2023-03-16T07:52:55.122Z,101097.75
2023-03-16T07:55:22.095Z,101093.66
2023-03-16T07:57:53.185Z,101094.88
2023-03-16T08:00:33.659Z,101083.41
2023-03-16T08:03:02.344Z,101079.50
2023-03-16T08:05:35.366Z,101076.44
2023-03-16T08:08:09.892Z,101064.16
2023-03-16T08:10:38.444Z,101064.13
2023-03-16T08:13:17.217Z,101070.03
2023-03-16T08:15:49.787Z,101064.06
2023-03-16T08:18:26.786Z,101063.03
2023-03-16T08:20:54.950Z,101056.09
2023-03-16T08:23:24.278Z,101064.66
2023-03-16T08:26:01.183Z,101074.72
2023-03-16T08:28:28.585Z,101071.47
2023-03-16T08:30:58.534Z,101076.81
2023-03-16T08:33:38.687Z,101082.50
2023-03-16T08:36:11.873Z,101072.63
2023-03-16T08:38:45.365Z,101073.78
2023-03-16T08:41:17.644Z,101064.59
2023-03-16T08:43:52.287Z,101059.38
2023-03-16T08:46:25.462Z,101050.97
2023-03-16T08:48:57.656Z,101051.25
2023-03-16T08:51:29.632Z,101054.22
2023-03-16T08:53:57.108Z,101042.31
2023-03-16T08:56:24.485Z,101039.81
2023-03-16T08:58:52.170Z,101031.38
2023-03-16T09:01:19.807Z,101046.63
2023-03-16T09:03:47.719Z,101044.50
2023-03-16T09:06:17.275Z,101046.38
2023-03-16T09:08:48.170Z,101040.16
2023-03-16T09:11:17.937Z,101038.19
2023-03-16T09:13:45.062Z,101034.84
2023-03-16T09:16:13.754Z,101033.75
2023-03-16T09:18:51.316Z,101036.38
2023-03-16T09:21:18.586Z,101051.03
2023-03-16T09:23:45.757Z,101054.19
2023-03-16T09:26:13.528Z,101049.78
2023-03-16T09:28:42.295Z,101046.66
2023-03-16T09:31:17.338Z,101042.00
2023-03-16T09:33:44.792Z,101044.56
2023-03-16T09:36:12.109Z,101041.28
2023-03-16T09:38:39.883Z,101030.78
2023-03-16T09:41:27.658Z,101026.88
2023-03-16T09:44:06.103Z,101022.19
2023-03-16T09:46:43.801Z,101023.47
2023-03-16T09:49:16.415Z,101021.41
2023-03-16T09:52:00.694Z,101011.53
2023-03-16T09:54:50.860Z,101004.00
2023-03-16T09:57:30.833Z,101009.06
2023-03-16T10:00:03.983Z,101005.47
2023-03-16T10:02:48.757Z,100998.59
2023-03-16T10:05:20.946Z,100988.28
2023-03-16T10:08:05.677Z,100988.31
2023-03-16T10:11:02.867Z,100977.47
2023-03-16T10:13:37.847Z,100974.44
2023-03-16T10:16:17.502Z,100971.50
2023-03-16T10:18:46.640Z,100958.47
2023-03-16T10:21:20.054Z,100962.97
2023-03-16T10:23:49.337Z,100962.97
2023-03-16T10:26:23.153Z,100968.38
2023-03-16T10:28:50.743Z,100974.25
2023-03-16T10:31:21.468Z,100964.84
2023-03-16T10:33:53.991Z,100962.53
2023-03-16T10:36:38.720Z,100954.28
2023-03-16T10:39:19.717Z,100949.81
2023-03-16T10:41:58.671Z,100949.00
2023-03-16T10:44:28.763Z,100950.78
2023-03-16T10:47:08.410Z,100949.91
2023-03-16T10:49:36.193Z,100951.09
2023-03-16T10:52:14.686Z,100936.84
2023-03-16T10:54:49.046Z,100928.84
2023-03-16T10:57:33.983Z,100932.63
2023-03-16T11:00:16.912Z,100947.38
2023-03-16T11:02:44.184Z,100936.72
2023-03-16T11:05:34.184Z,100937.88
2023-03-16T11:08:33.929Z,100930.56
2023-03-16T11:11:08.858Z,100940.06
2023-03-16T11:13:38.871Z,100944.25
2023-03-16T11:16:24.117Z,100944.47
2023-03-16T11:19:06.118Z,100940.06
2023-03-16T11:24:23.030Z,100940.59
2023-03-16T11:26:55.767Z,100934.03
2023-03-16T11:29:51.371Z,100932.03
2023-03-16T11:32:29.774Z,100924.69
2023-03-16T11:34:56.762Z,100918.63
2023-03-16T11:37:42.609Z,100914.66
2023-03-16T11:40:15.395Z,100918.72
2023-03-16T11:43:10.851Z,100924.28
2023-03-16T11:45:49.737Z,100922.72
2023-03-16T11:48:29.592Z,100920.41
2023-03-16T11:51:05.102Z,100911.69
2023-03-16T11:54:03.208Z,100915.63
2023-03-16T11:56:51.126Z,100908.00
2023-03-16T11:59:36.989Z,100911.72
2023-03-16T12:02:10.791Z,100893.75
2023-03-16T12:05:13.510Z,100885.06
2023-03-16T12:07:52.012Z,100868.31
2023-03-16T12:10:26.581Z,100871.44
2023-03-16T12:13:04.873Z,100864.28
2023-03-16T12:15:42.547Z,100868.19
2023-03-16T12:18:21.116Z,100871.66
2023-03-16T12:21:04.199Z,100864.38
2023-03-16T12:23:39.644Z,100857.28
2023-03-16T12:26:07.190Z,100855.66
2023-03-16T12:28:34.338Z,100853.13
2023-03-16T12:31:36.647Z,100840.41
2023-03-16T12:34:32.732Z,100853.16
2023-03-16T12:37:23.544Z,100837.03
2023-03-16T12:40:10.567Z,100842.44
2023-03-16T12:42:57.167Z,100850.16
2023-03-16T12:45:33.736Z,100847.25
2023-03-16T12:48:08.000Z,100840.38
2023-03-16T12:50:35.799Z,100837.13
2023-03-16T12:53:08.378Z,100833.88
2023-03-16T12:55:38.059Z,100833.00
2023-03-16T12:58:07.618Z,100825.84
2023-03-16T13:00:42.848Z,100830.06
2023-03-16T13:03:21.299Z,100821.13
2023-03-16T13:05:55.639Z,100807.69
2023-03-16T13:08:23.575Z,100811.28
2023-03-16T13:11:02.421Z,100809.91
2023-03-16T13:13:29.477Z,100811.03
2023-03-16T13:16:24.712Z,100811.38
2023-03-16T13:18:53.396Z,100814.44
2023-03-16T13:21:40.961Z,100799.34
2023-03-16T13:24:29.463Z,100796.63
2023-03-16T13:27:06.640Z,100805.00
2023-03-16T13:29:33.969Z,100808.44
2023-03-16T13:32:13.775Z,100802.28
2023-03-16T13:34:49.183Z,100790.47
2023-03-16T13:37:21.039Z,100789.38
2023-03-16T13:40:00.470Z,100785.84
2023-03-16T13:42:32.675Z,100780.22
2023-03-16T13:45:12.098Z,100775.91
2023-03-16T13:47:42.983Z,100761.63
2023-03-16T13:50:14.589Z,100760.31
2023-03-16T13:52:46.255Z,100750.59
2023-03-16T13:55:27.512Z,100763.25
2023-03-16T13:57:54.317Z,100748.72
2023-03-16T14:00:27.812Z,100744.66
2023-03-16T14:02:59.009Z,100742.47
2023-03-16T14:05:35.450Z,100743.53
2023-03-16T14:08:04.961Z,100747.38
2023-03-16T14:10:35.246Z,100751.13
2023-03-16T14:13:32.451Z,100744.16
2023-03-16T14:16:01.400Z,100740.38
2023-03-16T14:18:43.444Z,100739.81
2023-03-16T14:21:16.634Z,100742.53
2023-03-16T14:23:45.958Z,100740.38
2023-03-16T14:26:16.556Z,100737.16
2023-03-16T14:28:57.535Z,100727.97
2023-03-16T14:31:38.432Z,100727.97
2023-03-16T14:34:29.346Z,100726.63
2023-03-16T14:37:14.907Z,100722.59
2023-03-16T14:39:42.155Z,100709.16
2023-03-16T14:42:31.338Z,100714.53
2023-03-16T14:45:02.308Z,100716.69
2023-03-16T14:47:31.099Z,100710.19
2023-03-16T14:50:03.382Z,100711.78
2023-03-16T14:52:33.996Z,100710.16
2023-03-16T14:55:09.929Z,100698.31
2023-03-16T14:57:39.388Z,100691.38
2023-03-16T15:00:10.163Z,100695.09
2023-03-16T15:02:37.113Z,100702.13
2023-03-16T15:05:05.682Z,100696.44
2023-03-16T15:07:41.150Z,100697.56
2023-03-16T15:10:26.090Z,100697.56
2023-03-16T15:13:04.252Z,100695.69
2023-03-16T15:15:31.747Z,100695.41
2023-03-16T15:17:59.862Z,100686.00
2023-03-16T15:20:35.358Z,100684.38
2023-03-16T15:23:04.904Z,100682.19
2023-03-16T15:25:41.357Z,100678.97
2023-03-16T15:28:16.908Z,100672.78
2023-03-16T15:30:45.283Z,100680.56
2023-03-16T15:33:15.117Z,100674.66
2023-03-16T15:35:43.100Z,100680.03
2023-03-16T15:38:28.463Z,100675.16
2023-03-16T15:40:55.865Z,100684.59
2023-03-16T15:43:24.714Z,100661.72
2023-03-16T15:45:52.385Z,100662.84
2023-03-16T15:48:24.671Z,100659.63
2023-03-16T15:51:01.855Z,100650.97
2023-03-16T15:53:45.617Z,100651.50
2023-03-16T15:56:19.389Z,100645.84
2023-03-16T15:58:47.350Z,100646.09
2023-03-16T16:01:25.734Z,100632.88
2023-03-16T16:03:54.013Z,100637.38
2023-03-16T16:06:22.271Z,100625.56
2023-03-16T16:08:49.028Z,100624.00
2023-03-16T16:11:19.353Z,100623.72
2023-03-16T16:13:46.781Z,100623.97
2023-03-16T16:16:17.790Z,100624.47
2023-03-16T16:18:46.616Z,100626.06
2023-03-16T16:21:23.367Z,100624.72
2023-03-16T16:23:50.922Z,100634.09
2023-03-16T16:26:34.377Z,100629.25
2023-03-16T16:29:13.870Z,100624.97
2023-03-16T16:31:40.938Z,100626.59
2023-03-16T16:34:21.115Z,100628.75
2023-03-16T16:36:49.327Z,100621.19
2023-03-16T16:39:17.566Z,100621.19
2023-03-16T16:41:44.544Z,100618.94
2023-03-16T16:44:23.666Z,100622.16
2023-03-16T16:46:52.314Z,100611.13
2023-03-16T16:49:28.339Z,100606.53
2023-03-16T16:51:55.391Z,100604.38
2023-03-16T16:54:28.660Z,100609.75
2023-03-16T16:56:59.406Z,100617.75
2023-03-16T16:59:30.388Z,100627.41
2023-03-16T17:02:01.888Z,100618.31
2023-03-16T17:04:29.487Z,100621.53
2023-03-16T17:07:00.943Z,100619.91
2023-03-16T17:09:29.135Z,100631.13
2023-03-16T17:11:59.042Z,100624.84
2023-03-16T17:14:28.455Z,100620.47
2023-03-16T17:16:56.172Z,100632.78
2023-03-16T17:19:28.134Z,100635.47
2023-03-16T17:21:58.460Z,100626.06
2023-03-16T17:24:25.760Z,100618.50
2023-03-16T17:26:57.550Z,100629.22
2023-03-16T17:29:26.740Z,100619.50
2023-03-16T17:31:53.890Z,100621.63
2023-03-16T17:34:24.741Z,100621.63
2023-03-16T17:36:54.905Z,100611.63
2023-03-16T17:39:24.760Z,100607.06
2023-03-16T17:41:58.519Z,100608.16
2023-03-16T17:44:31.866Z,100606.00
2023-03-16T17:46:59.939Z,100598.44
2023-03-16T17:49:28.606Z,100593.78
2023-03-16T17:51:56.715Z,100600.72
2023-03-16T17:54:25.844Z,100601.03
2023-03-16T17:56:54.098Z,100601.03
2023-03-16T17:59:24.901Z,100601.03
2023-03-16T18:01:52.557Z,100588.41
2023-03-16T18:04:22.743Z,100583.84
2023-03-16T18:06:52.392Z,100593.75
2023-03-16T18:09:21.146Z,100582.22
2023-03-16T18:11:50.979Z,100587.06
2023-03-16T18:14:35.348Z,100584.38
2023-03-16T18:17:36.123Z,100580.94
2023-03-16T18:20:03.362Z,100579.59
2023-03-16T18:22:30.327Z,100574.75
2023-03-16T18:25:02.297Z,100580.03
2023-03-16T18:27:29.008Z,100571.44
2023-03-16T18:29:55.751Z,100570.88
2023-03-16T18:32:25.639Z,100573.53
2023-03-16T18:34:53.372Z,100569.97
2023-03-16T18:37:23.774Z,100560.00
2023-03-16T18:39:52.197Z,100551.97
2023-03-16T18:42:21.093Z,100556.53
2023-03-16T18:44:48.929Z,100556.47
2023-03-16T18:47:22.934Z,100556.44
2023-03-16T18:49:54.093Z,100556.09
2023-03-16T18:52:24.057Z,100560.81
2023-03-16T18:54:53.068Z,100561.25
2023-03-16T18:57:23.149Z,100562.78
2023-03-16T18:59:51.041Z,100556.31
2023-03-16T19:02:28.983Z,100561.06
2023-03-16T19:04:59.612Z,100556.19
2023-03-16T19:07:35.437Z,100550.03
2023-03-16T19:10:08.742Z,100547.28
2023-03-16T19:12:38.815Z,100547.00
2023-03-16T19:15:28.264Z,100551.34
2023-03-16T19:17:55.336Z,100551.53
2023-03-16T19:20:31.637Z,100550.97
2023-03-16T19:23:07.491Z,100545.34
2023-03-16T19:25:39.964Z,100557.06
2023-03-16T19:28:13.886Z,100561.28
2023-03-16T19:30:41.440Z,100563.09
2023-03-16T19:33:30.520Z,100554.75
2023-03-16T19:35:58.001Z,100552.31
2023-03-16T19:38:25.875Z,100552.59
2023-03-16T19:41:00.792Z,100539.13
2023-03-16T19:43:28.680Z,100542.78
2023-03-16T19:45:56.628Z,100540.13
2023-03-16T19:48:33.073Z,100541.19
2023-03-16T19:51:01.204Z,100536.88
2023-03-16T19:53:27.913Z,100535.75
2023-03-16T19:55:54.859Z,100539.50
2023-03-16T19:58:36.006Z,100543.41
2023-03-16T20:01:03.173Z,100547.94
2023-03-16T20:03:34.602Z,100549.25
2023-03-16T20:06:01.479Z,100545.84
2023-03-16T20:08:29.833Z,100541.47
2023-03-16T20:11:02.254Z,100541.78
2023-03-16T20:13:31.021Z,100534.00
2023-03-16T20:16:00.362Z,100529.13
2023-03-16T20:18:29.345Z,100520.00
2023-03-16T20:20:56.375Z,100526.88
2023-03-16T20:23:32.780Z,100522.09
2023-03-16T20:26:02.672Z,100517.81
2023-03-16T20:28:38.729Z,100517.50
2023-03-16T20:31:08.863Z,100520.16
2023-03-16T20:33:35.558Z,100530.13
2023-03-16T20:36:02.589Z,100525.59
2023-03-16T20:38:32.430Z,100529.09
2023-03-16T20:40:59.719Z,100530.69
2023-03-16T20:43:35.168Z,100526.88
2023-03-16T20:46:04.110Z,100521.84
2023-03-16T20:48:32.229Z,100520.81
2023-03-16T20:51:00.728Z,100517.88
2023-03-16T20:53:27.732Z,100508.25
2023-03-16T20:55:58.586Z,100511.50
2023-03-16T20:58:30.514Z,100515.53
2023-03-16T21:01:03.571Z,100515.75
2023-03-16T21:03:33.446Z,100509.56
2023-03-16T21:06:02.112Z,100511.34
2023-03-16T21:08:29.068Z,100513.50
2023-03-16T21:10:57.240Z,100515.19
2023-03-16T21:13:40.565Z,100521.75
2023-03-16T21:16:11.157Z,100507.88
2023-03-16T21:18:40.609Z,100508.19
2023-03-16T21:21:16.567Z,100505.28
2023-03-16T21:23:44.276Z,100503.38
2023-03-16T21:26:28.887Z,100502.28
2023-03-16T21:29:02.071Z,100509.81
2023-03-16T21:31:29.186Z,100505.28
2023-03-16T21:33:56.334Z,100504.78
2023-03-16T21:36:26.639Z,100501.53
2023-03-16T21:38:54.511Z,100502.28
2023-03-16T21:41:21.692Z,100507.88
2023-03-16T21:43:50.006Z,100500.19
2023-03-16T21:46:25.770Z,100506.31
2023-03-16T21:48:55.255Z,100503.91
2023-03-16T21:51:29.195Z,100504.47
2023-03-16T21:53:58.285Z,100493.47
2023-03-16T21:56:26.385Z,100495.88
2023-03-16T21:58:54.037Z,100491.91
2023-03-16T22:01:26.002Z,100496.19
2023-03-16T22:03:57.534Z,100493.47
2023-03-16T22:06:27.988Z,100493.66
2023-03-16T22:08:55.589Z,100492.34
2023-03-16T22:11:31.368Z,100483.25
2023-03-16T22:13:59.685Z,100484.88
2023-03-16T22:16:31.441Z,100490.78
2023-03-16T22:18:58.693Z,100484.56
2023-03-16T22:21:28.652Z,100481.56
2023-03-16T22:23:59.827Z,100481.50
2023-03-16T22:26:28.639Z,100483.66
2023-03-16T22:28:56.451Z,100477.53
2023-03-16T22:31:33.701Z,100474.66
2023-03-16T22:34:02.628Z,100456.50
2023-03-16T22:36:35.551Z,100454.38
2023-03-16T22:39:08.154Z,100451.09
2023-03-16T22:41:35.811Z,100445.66
2023-03-16T22:44:03.073Z,100447.78
2023-03-16T22:46:31.113Z,100451.53
2023-03-16T22:48:58.285Z,100455.75
2023-03-16T22:51:34.501Z,100449.09
2023-03-16T22:54:11.620Z,100447.72
2023-03-16T22:56:40.807Z,100453.03
2023-03-16T22:59:13.746Z,100447.13
2023-03-16T23:01:43.746Z,100449.13
2023-03-16T23:04:21.376Z,100452.31
2023-03-16T23:06:57.884Z,100442.03
2023-03-16T23:09:30.629Z,100432.13
2023-03-16T23:11:59.494Z,100435.88
2023-03-16T23:14:30.638Z,100425.31
2023-03-16T23:16:57.410Z,100420.81
2023-03-16T23:19:29.962Z,100419.19
2023-03-16T23:22:06.426Z,100427.19
2023-03-16T23:24:34.747Z,100421.78
2023-03-16T23:27:02.329Z,100419.94
2023-03-16T23:29:30.795Z,100419.38
2023-03-16T23:31:58.326Z,100419.03
2023-03-16T23:34:29.059Z,100428.91
2023-03-16T23:36:59.342Z,100425.44
2023-03-16T23:39:28.652Z,100418.22
2023-03-16T23:42:05.380Z,100419.31
2023-03-16T23:44:35.454Z,100421.66
2023-03-16T23:47:02.728Z,100423.56
2023-03-16T23:49:33.058Z,100425.19
2023-03-16T23:52:01.802Z,100424.72
2023-03-16T23:54:32.559Z,100424.19
2023-03-16T23:57:00.550Z,100421.63
2023-03-16T23:59:27.978Z,100417.16
